sensor_id;sensor_type;location;lat;lon;timestamp;pressure;altitude;pressure_sealevel;temperature;humidity
74218;BME280;62579;47.288;18.646;2023-06-26T00:02:11;99769.69;;;18.41;80.62
74218;BME280;62579;47.288;18.646;2023-06-26T00:04:37;99768.59;;;18.44;80.09
74218;BME280;62579;47.288;18.646;2023-06-26T00:07:06;99755.19;;;18.33;80.41
74218;BME280;62579;47.288;18.646;2023-06-26T00:09:31;99761.25;;;18.24;81.13
74218;BME280;62579;47.288;18.646;2023-06-26T00:11:57;99763.44;;;18.11;81.55
74218;BME280;62579;47.288;18.646;2023-06-26T00:14:22;99766.53;;;17.84;83.16
74218;BME280;62579;47.288;18.646;2023-06-26T00:16:48;99765.78;;;17.69;83.90
74218;BME280;62579;47.288;18.646;2023-06-26T00:19:16;99760.03;;;17.59;84.25
74218;BME280;62579;47.288;18.646;2023-06-26T00:21:41;99762.09;;;17.66;83.85
74218;BME280;62579;47.288;18.646;2023-06-26T00:24:12;99756.78;;;17.68;84.12
74218;BME280;62579;47.288;18.646;2023-06-26T00:26:37;99757.34;;;17.67;84.25
74218;BME280;62579;47.288;18.646;2023-06-26T00:29:02;99759.88;;;17.72;84.05
74218;BME280;62579;47.288;18.646;2023-06-26T00:31:28;99755.13;;;17.73;85.36
74218;BME280;62579;47.288;18.646;2023-06-26T00:33:53;99761.03;;;17.77;85.01
74218;BME280;62579;47.288;18.646;2023-06-26T00:36:19;99768.19;;;17.87;83.81
74218;BME280;62579;47.288;18.646;2023-06-26T00:38:44;99772.78;;;17.92;83.04
74218;BME280;62579;47.288;18.646;2023-06-26T00:41:09;99771.31;;;17.91;83.53
74218;BME280;62579;47.288;18.646;2023-06-26T00:43:38;99774.41;;;17.80;84.72
74218;BME280;62579;47.288;18.646;2023-06-26T00:46:03;99777.72;;;17.71;84.92
74218;BME280;62579;47.288;18.646;2023-06-26T00:48:30;99765.37;;;17.57;85.31
74218;BME280;62579;47.288;18.646;2023-06-26T00:51:05;99773.81;;;17.59;84.92
74218;BME280;62579;47.288;18.646;2023-06-26T00:53:31;99766.56;;;17.33;85.62
74218;BME280;62579;47.288;18.646;2023-06-26T00:55:56;99762.47;;;17.19;86.22
74218;BME280;62579;47.288;18.646;2023-06-26T00:58:23;99761.19;;;17.20;86.20
74218;BME280;62579;47.288;18.646;2023-06-26T01:00:55;99754.78;;;17.25;85.61
74218;BME280;62579;47.288;18.646;2023-06-26T01:03:23;99758.41;;;17.13;90.33
74218;BME280;62579;47.288;18.646;2023-06-26T01:05:51;99752.81;;;16.98;89.54
74218;BME280;62579;47.288;18.646;2023-06-26T01:08:17;99757.25;;;17.01;89.43
74218;BME280;62579;47.288;18.646;2023-06-26T01:10:43;99763.03;;;16.90;90.43
74218;BME280;62579;47.288;18.646;2023-06-26T01:13:09;99749.59;;;17.14;88.49
74218;BME280;62579;47.288;18.646;2023-06-26T01:15:34;99751.63;;;17.21;88.03
74218;BME280;62579;47.288;18.646;2023-06-26T01:18:01;99745.44;;;17.28;87.05
74218;BME280;62579;47.288;18.646;2023-06-26T01:20:31;99741.41;;;17.29;87.84
74218;BME280;62579;47.288;18.646;2023-06-26T01:23:05;99737.94;;;17.29;87.39
74218;BME280;62579;47.288;18.646;2023-06-26T01:28:27;99742.84;;;17.15;86.72
74218;BME280;62579;47.288;18.646;2023-06-26T01:30:53;99750.66;;;17.04;87.23
74218;BME280;62579;47.288;18.646;2023-06-26T01:33:27;99745.50;;;17.00;87.51
74218;BME280;62579;47.288;18.646;2023-06-26T01:44:07;99740.91;;;16.95;88.18
74218;BME280;62579;47.288;18.646;2023-06-26T01:46:43;99744.00;;;16.92;88.28
74218;BME280;62579;47.288;18.646;2023-06-26T01:49:28;99738.16;;;16.95;87.90
74218;BME280;62579;47.288;18.646;2023-06-26T01:54:52;99737.97;;;16.93;87.91
74218;BME280;62579;47.288;18.646;2023-06-26T01:57:18;99729.56;;;16.99;87.10
74218;BME280;62579;47.288;18.646;2023-06-26T01:59:46;99735.59;;;16.97;87.66
74218;BME280;62579;47.288;18.646;2023-06-26T02:10:40;99743.13;;;16.97;88.00
74218;BME280;62579;47.288;18.646;2023-06-26T02:13:06;99740.41;;;17.04;87.06
74218;BME280;62579;47.288;18.646;2023-06-26T02:15:31;99744.97;;;17.02;86.55
74218;BME280;62579;47.288;18.646;2023-06-26T02:18:03;99743.06;;;16.89;87.62
74218;BME280;62579;47.288;18.646;2023-06-26T02:20:28;99745.19;;;16.75;88.55
74218;BME280;62579;47.288;18.646;2023-06-26T02:22:53;99734.87;;;16.68;89.05
74218;BME280;62579;47.288;18.646;2023-06-26T02:25:19;99740.72;;;16.65;89.28
74218;BME280;62579;47.288;18.646;2023-06-26T02:28:08;99747.69;;;16.66;89.77
74218;BME280;62579;47.288;18.646;2023-06-26T02:30:40;99744.97;;;16.66;89.42
74218;BME280;62579;47.288;18.646;2023-06-26T02:33:05;99743.31;;;16.70;88.77
74218;BME280;62579;47.288;18.646;2023-06-26T02:35:31;99741.84;;;16.62;89.47
74218;BME280;62579;47.288;18.646;2023-06-26T02:37:58;99744.75;;;16.64;89.12
74218;BME280;62579;47.288;18.646;2023-06-26T02:40:23;99742.53;;;16.62;88.99
74218;BME280;62579;47.288;18.646;2023-06-26T02:42:49;99741.41;;;16.58;90.50
74218;BME280;62579;47.288;18.646;2023-06-26T02:45:14;99743.53;;;16.52;90.73
74218;BME280;62579;47.288;18.646;2023-06-26T02:47:39;99749.59;;;16.50;90.43
74218;BME280;62579;47.288;18.646;2023-06-26T02:50:06;99750.25;;;16.43;89.29
74218;BME280;62579;47.288;18.646;2023-06-26T02:52:31;99746.38;;;16.39;88.66
74218;BME280;62579;47.288;18.646;2023-06-26T02:54:57;99766.69;;;16.36;88.27
74218;BME280;62579;47.288;18.646;2023-06-26T02:57:22;99747.28;;;16.34;88.10
74218;BME280;62579;47.288;18.646;2023-06-26T02:59:48;99753.50;;;16.34;87.51
74218;BME280;62579;47.288;18.646;2023-06-26T03:02:13;99753.50;;;16.34;87.41
74218;BME280;62579;47.288;18.646;2023-06-26T03:04:38;99759.50;;;16.33;87.59
74218;BME280;62579;47.288;18.646;2023-06-26T03:07:04;99755.31;;;16.32;88.39
74218;BME280;62579;47.288;18.646;2023-06-26T03:09:29;99757.87;;;16.30;88.71
74218;BME280;62579;47.288;18.646;2023-06-26T03:11:55;99758.19;;;16.26;89.01
74218;BME280;62579;47.288;18.646;2023-06-26T03:14:21;99759.97;;;16.16;89.57
74218;BME280;62579;47.288;18.646;2023-06-26T03:16:46;99754.66;;;16.18;89.38
74218;BME280;62579;47.288;18.646;2023-06-26T03:19:11;99761.47;;;16.24;88.77
74218;BME280;62579;47.288;18.646;2023-06-26T03:21:37;99759.28;;;16.23;88.69
74218;BME280;62579;47.288;18.646;2023-06-26T03:24:02;99750.69;;;16.27;88.54
74218;BME280;62579;47.288;18.646;2023-06-26T03:26:27;99755.59;;;16.20;89.00
74218;BME280;62579;47.288;18.646;2023-06-26T03:28:54;99763.38;;;16.30;88.84
74218;BME280;62579;47.288;18.646;2023-06-26T03:31:19;99760.62;;;16.30;88.99
74218;BME280;62579;47.288;18.646;2023-06-26T03:33:45;99761.75;;;16.34;88.95
74218;BME280;62579;47.288;18.646;2023-06-26T03:36:11;99758.66;;;16.38;89.10
74218;BME280;62579;47.288;18.646;2023-06-26T03:38:36;99761.31;;;16.51;88.84
74218;BME280;62579;47.288;18.646;2023-06-26T03:41:02;99765.59;;;16.59;90.23
74218;BME280;62579;47.288;18.646;2023-06-26T03:43:27;99763.81;;;16.62;90.80
74218;BME280;62579;47.288;18.646;2023-06-26T03:45:53;99761.53;;;16.81;89.03
74218;BME280;62579;47.288;18.646;2023-06-26T03:48:18;99771.66;;;16.86;89.17
74218;BME280;62579;47.288;18.646;2023-06-26T03:50:44;99773.66;;;16.86;89.72
74218;BME280;62579;47.288;18.646;2023-06-26T03:53:10;99781.84;;;17.06;88.70
74218;BME280;62579;47.288;18.646;2023-06-26T03:55:35;99776.06;;;17.25;87.79
74218;BME280;62579;47.288;18.646;2023-06-26T03:58:00;99778.28;;;17.26;87.99
74218;BME280;62579;47.288;18.646;2023-06-26T04:00:26;99778.13;;;17.39;86.92
74218;BME280;62579;47.288;18.646;2023-06-26T04:02:51;99781.13;;;17.57;84.68
74218;BME280;62579;47.288;18.646;2023-06-26T04:05:17;99779.31;;;17.59;86.13
74218;BME280;62579;47.288;18.646;2023-06-26T04:07:42;99781.00;;;17.70;85.05
74218;BME280;62579;47.288;18.646;2023-06-26T04:10:08;99782.66;;;17.80;84.77
74218;BME280;62579;47.288;18.646;2023-06-26T04:12:33;99791.66;;;17.81;84.38
74218;BME280;62579;47.288;18.646;2023-06-26T04:15:11;99786.38;;;17.83;83.99
74218;BME280;62579;47.288;18.646;2023-06-26T04:17:36;99786.38;;;17.98;83.34
74218;BME280;62579;47.288;18.646;2023-06-26T04:20:02;99788.22;;;17.95;83.52
74218;BME280;62579;47.288;18.646;2023-06-26T04:22:31;99790.03;;;17.93;83.80
74218;BME280;62579;47.288;18.646;2023-06-26T04:25:03;99790.56;;;17.84;84.31
74218;BME280;62579;47.288;18.646;2023-06-26T04:27:44;99791.34;;;18.07;83.20
74218;BME280;62579;47.288;18.646;2023-06-26T04:30:10;99791.72;;;18.26;81.33
74218;BME280;62579;47.288;18.646;2023-06-26T04:32:35;99798.16;;;18.21;81.55
74218;BME280;62579;47.288;18.646;2023-06-26T04:35:00;99789.91;;;18.36;80.35
74218;BME280;62579;47.288;18.646;2023-06-26T04:37:26;99800.53;;;18.40;80.20
74218;BME280;62579;47.288;18.646;2023-06-26T04:39:51;99793.97;;;18.58;81.25
74218;BME280;62579;47.288;18.646;2023-06-26T04:42:16;99792.09;;;18.68;81.67
74218;BME280;62579;47.288;18.646;2023-06-26T04:44:42;99794.31;;;18.70;79.83
74218;BME280;62579;47.288;18.646;2023-06-26T04:47:08;99800.19;;;18.74;80.33
74218;BME280;62579;47.288;18.646;2023-06-26T04:49:33;99807.16;;;18.29;81.80
74218;BME280;62579;47.288;18.646;2023-06-26T04:51:59;99800.00;;;18.72;81.13
74218;BME280;62579;47.288;18.646;2023-06-26T04:54:25;99806.38;;;18.97;81.55
74218;BME280;62579;47.288;18.646;2023-06-26T04:56:51;99810.22;;;19.01;80.05
74218;BME280;62579;47.288;18.646;2023-06-26T04:59:16;99810.22;;;19.01;80.38
74218;BME280;62579;47.288;18.646;2023-06-26T05:01:41;99811.28;;;19.21;80.98
74218;BME280;62579;47.288;18.646;2023-06-26T05:04:07;99805.56;;;19.27;80.50
74218;BME280;62579;47.288;18.646;2023-06-26T05:06:33;99811.09;;;19.27;78.00
74218;BME280;62579;47.288;18.646;2023-06-26T05:08:58;99805.28;;;19.00;79.92
74218;BME280;62579;47.288;18.646;2023-06-26T05:11:25;99806.97;;;18.88;80.86
74218;BME280;62579;47.288;18.646;2023-06-26T05:13:50;99811.03;;;18.79;81.00
74218;BME280;62579;47.288;18.646;2023-06-26T05:16:15;99799.78;;;18.77;81.70
74218;BME280;62579;47.288;18.646;2023-06-26T05:18:41;99803.09;;;18.91;81.82
74218;BME280;62579;47.288;18.646;2023-06-26T05:21:06;99806.00;;;19.08;81.05
74218;BME280;62579;47.288;18.646;2023-06-26T05:23:33;99794.94;;;19.15;78.52
74218;BME280;62579;47.288;18.646;2023-06-26T05:25:59;99809.41;;;19.31;77.91
74218;BME280;62579;47.288;18.646;2023-06-26T05:28:25;99804.09;;;19.33;77.98
74218;BME280;62579;47.288;18.646;2023-06-26T05:30:52;99797.06;;;19.40;75.00
74218;BME280;62579;47.288;18.646;2023-06-26T05:33:18;99795.59;;;19.46;75.21
74218;BME280;62579;47.288;18.646;2023-06-26T05:35:45;99799.28;;;19.41;76.81
74218;BME280;62579;47.288;18.646;2023-06-26T05:38:11;99797.53;;;19.61;76.77
74218;BME280;62579;47.288;18.646;2023-06-26T05:40:40;99805.34;;;19.79;76.02
74218;BME280;62579;47.288;18.646;2023-06-26T05:43:06;99795.41;;;19.84;74.84
74218;BME280;62579;47.288;18.646;2023-06-26T05:45:32;99799.97;;;19.89;74.66
74218;BME280;62579;47.288;18.646;2023-06-26T05:47:58;99796.97;;;19.95;74.68
74218;BME280;62579;47.288;18.646;2023-06-26T05:50:23;99791.47;;;19.95;76.15
74218;BME280;62579;47.288;18.646;2023-06-26T05:52:49;99801.56;;;20.00;74.03
74218;BME280;62579;47.288;18.646;2023-06-26T05:55:15;99799.34;;;19.98;72.57
74218;BME280;62579;47.288;18.646;2023-06-26T05:57:41;99794.63;;;20.16;72.31
74218;BME280;62579;47.288;18.646;2023-06-26T06:00:07;99789.63;;;20.22;72.41
74218;BME280;62579;47.288;18.646;2023-06-26T06:02:36;99798.78;;;20.32;73.57
74218;BME280;62579;47.288;18.646;2023-06-26T06:05:02;99799.66;;;20.34;72.50
74218;BME280;62579;47.288;18.646;2023-06-26T06:07:28;99793.53;;;20.44;72.29
74218;BME280;62579;47.288;18.646;2023-06-26T06:09:53;99796.22;;;20.51;71.19
74218;BME280;62579;47.288;18.646;2023-06-26T06:12:18;99805.91;;;20.60;70.50
74218;BME280;62579;47.288;18.646;2023-06-26T06:14:44;99802.28;;;20.50;71.06
74218;BME280;62579;47.288;18.646;2023-06-26T06:17:09;99797.47;;;20.75;71.44
74218;BME280;62579;47.288;18.646;2023-06-26T06:19:34;99797.06;;;20.78;71.05
74218;BME280;62579;47.288;18.646;2023-06-26T06:22:01;99798.19;;;20.92;71.62
74218;BME280;62579;47.288;18.646;2023-06-26T06:24:26;99798.13;;;21.00;72.10
74218;BME280;62579;47.288;18.646;2023-06-26T06:26:52;99803.78;;;21.10;72.09
74218;BME280;62579;47.288;18.646;2023-06-26T06:29:17;99805.81;;;21.26;72.39
74218;BME280;62579;47.288;18.646;2023-06-26T06:31:44;99802.69;;;21.22;71.19
74218;BME280;62579;47.288;18.646;2023-06-26T06:34:09;99801.00;;;21.27;71.63
74218;BME280;62579;47.288;18.646;2023-06-26T06:36:35;99802.53;;;21.37;71.86
74218;BME280;62579;47.288;18.646;2023-06-26T06:39:00;99804.88;;;21.41;71.73
74218;BME280;62579;47.288;18.646;2023-06-26T06:41:26;99798.72;;;21.60;71.23
74218;BME280;62579;47.288;18.646;2023-06-26T06:43:51;99802.34;;;21.52;70.93
74218;BME280;62579;47.288;18.646;2023-06-26T06:46:16;99794.09;;;21.62;71.69
74218;BME280;62579;47.288;18.646;2023-06-26T06:48:42;99799.66;;;21.89;70.92
74218;BME280;62579;47.288;18.646;2023-06-26T06:51:07;99796.41;;;21.83;70.19
74218;BME280;62579;47.288;18.646;2023-06-26T06:53:32;99802.22;;;22.04;69.10
74218;BME280;62579;47.288;18.646;2023-06-26T06:55:58;99803.34;;;22.01;69.55
74218;BME280;62579;47.288;18.646;2023-06-26T06:58:23;99796.88;;;22.25;68.81
74218;BME280;62579;47.288;18.646;2023-06-26T07:00:49;99794.19;;;22.08;68.65
74218;BME280;62579;47.288;18.646;2023-06-26T07:03:17;99799.66;;;22.25;68.34
74218;BME280;62579;47.288;18.646;2023-06-26T07:05:42;99790.34;;;22.30;66.62
74218;BME280;62579;47.288;18.646;2023-06-26T07:08:08;99796.50;;;22.38;67.87
74218;BME280;62579;47.288;18.646;2023-06-26T07:10:34;99783.25;;;22.56;68.28
74218;BME280;62579;47.288;18.646;2023-06-26T07:12:59;99792.34;;;22.76;65.62
74218;BME280;62579;47.288;18.646;2023-06-26T07:15:24;99788.13;;;22.75;63.99
74218;BME280;62579;47.288;18.646;2023-06-26T07:17:50;99784.78;;;22.86;63.88
74218;BME280;62579;47.288;18.646;2023-06-26T07:20:15;99785.66;;;22.98;62.01
74218;BME280;62579;47.288;18.646;2023-06-26T07:22:41;99780.41;;;23.11;58.83
74218;BME280;62579;47.288;18.646;2023-06-26T07:25:07;99774.81;;;23.21;60.60
74218;BME280;62579;47.288;18.646;2023-06-26T07:27:39;99780.25;;;23.19;57.73
74218;BME280;62579;47.288;18.646;2023-06-26T07:30:05;99777.19;;;23.34;58.06
74218;BME280;62579;47.288;18.646;2023-06-26T07:32:31;99782.28;;;23.28;58.66
74218;BME280;62579;47.288;18.646;2023-06-26T07:34:56;99785.66;;;23.36;56.01
74218;BME280;62579;47.288;18.646;2023-06-26T07:37:23;99781.13;;;23.41;56.83
74218;BME280;62579;47.288;18.646;2023-06-26T07:39:50;99779.53;;;23.47;55.90
74218;BME280;62579;47.288;18.646;2023-06-26T07:42:15;99788.59;;;23.48;56.71
74218;BME280;62579;47.288;18.646;2023-06-26T07:44:42;99791.34;;;23.57;58.02
74218;BME280;62579;47.288;18.646;2023-06-26T07:47:07;99779.78;;;23.61;55.09
74218;BME280;62579;47.288;18.646;2023-06-26T07:49:33;99786.78;;;23.71;54.67
74218;BME280;62579;47.288;18.646;2023-06-26T07:51:58;99782.50;;;23.80;56.06
74218;BME280;62579;47.288;18.646;2023-06-26T07:54:23;99793.28;;;23.85;55.29
74218;BME280;62579;47.288;18.646;2023-06-26T07:56:53;99791.12;;;23.84;53.82
74218;BME280;62579;47.288;18.646;2023-06-26T07:59:19;99792.28;;;23.81;54.40
74218;BME280;62579;47.288;18.646;2023-06-26T08:01:46;99794.50;;;23.73;53.86
74218;BME280;62579;47.288;18.646;2023-06-26T08:04:11;99796.75;;;24.05;54.43
74218;BME280;62579;47.288;18.646;2023-06-26T08:06:36;99799.97;;;24.11;53.23
74218;BME280;62579;47.288;18.646;2023-06-26T08:09:05;99800.75;;;23.92;53.24
74218;BME280;62579;47.288;18.646;2023-06-26T08:11:31;99792.38;;;24.12;53.85
74218;BME280;62579;47.288;18.646;2023-06-26T08:13:56;99798.06;;;24.04;56.43
74218;BME280;62579;47.288;18.646;2023-06-26T08:16:31;99798.94;;;24.07;52.15
74218;BME280;62579;47.288;18.646;2023-06-26T08:18:56;99806.81;;;24.20;52.83
74218;BME280;62579;47.288;18.646;2023-06-26T08:21:22;99804.16;;;24.22;52.05
74218;BME280;62579;47.288;18.646;2023-06-26T08:23:47;99800.66;;;24.21;54.06
74218;BME280;62579;47.288;18.646;2023-06-26T08:26:13;99804.38;;;24.35;53.57
74218;BME280;62579;47.288;18.646;2023-06-26T08:28:38;99814.00;;;24.44;51.46
74218;BME280;62579;47.288;18.646;2023-06-26T08:31:04;99816.69;;;24.32;51.05
74218;BME280;62579;47.288;18.646;2023-06-26T08:33:29;99806.50;;;24.25;52.51
74218;BME280;62579;47.288;18.646;2023-06-26T08:35:54;99809.63;;;24.41;53.13
74218;BME280;62579;47.288;18.646;2023-06-26T08:38:20;99798.19;;;24.46;52.74
74218;BME280;62579;47.288;18.646;2023-06-26T08:40:46;99802.06;;;24.32;52.47
74218;BME280;62579;47.288;18.646;2023-06-26T08:43:11;99797.88;;;24.52;52.54
74218;BME280;62579;47.288;18.646;2023-06-26T08:45:37;99809.66;;;24.62;52.58
74218;BME280;62579;47.288;18.646;2023-06-26T08:48:03;99804.75;;;24.51;54.32
74218;BME280;62579;47.288;18.646;2023-06-26T08:50:34;99801.72;;;24.68;53.74
74218;BME280;62579;47.288;18.646;2023-06-26T08:56:03;99800.75;;;24.85;53.41
74218;BME280;62579;47.288;18.646;2023-06-26T08:58:29;99804.50;;;24.68;52.31
74218;BME280;62579;47.288;18.646;2023-06-26T09:00:55;99800.47;;;25.02;54.37
74218;BME280;62579;47.288;18.646;2023-06-26T09:03:21;99800.34;;;25.00;53.52
74218;BME280;62579;47.288;18.646;2023-06-26T09:05:48;99795.56;;;24.91;52.87
74218;BME280;62579;47.288;18.646;2023-06-26T09:08:13;99794.84;;;25.12;52.38
74218;BME280;62579;47.288;18.646;2023-06-26T09:10:39;99792.50;;;25.41;52.86
74218;BME280;62579;47.288;18.646;2023-06-26T09:13:05;99796.03;;;25.41;51.30
74218;BME280;62579;47.288;18.646;2023-06-26T09:15:43;99795.09;;;25.48;50.66
74218;BME280;62579;47.288;18.646;2023-06-26T09:18:09;99801.75;;;25.55;51.21
74218;BME280;62579;47.288;18.646;2023-06-26T09:20:35;99795.72;;;25.58;49.34
74218;BME280;62579;47.288;18.646;2023-06-26T09:23:01;99794.78;;;25.65;48.82
74218;BME280;62579;47.288;18.646;2023-06-26T09:25:28;99793.25;;;25.41;50.44
74218;BME280;62579;47.288;18.646;2023-06-26T09:27:54;99789.06;;;25.52;51.12
74218;BME280;62579;47.288;18.646;2023-06-26T09:30:20;99793.09;;;25.72;50.12
74218;BME280;62579;47.288;18.646;2023-06-26T09:32:46;99791.16;;;25.86;47.53
74218;BME280;62579;47.288;18.646;2023-06-26T09:35:11;99796.50;;;25.82;47.05
74218;BME280;62579;47.288;18.646;2023-06-26T09:37:37;99786.06;;;25.83;47.38
74218;BME280;62579;47.288;18.646;2023-06-26T09:40:03;99789.97;;;25.89;47.96
74218;BME280;62579;47.288;18.646;2023-06-26T09:42:29;99785.09;;;26.01;48.35
74218;BME280;62579;47.288;18.646;2023-06-26T09:44:55;99790.09;;;26.03;46.56
74218;BME280;62579;47.288;18.646;2023-06-26T09:47:20;99786.81;;;25.83;46.03
74218;BME280;62579;47.288;18.646;2023-06-26T09:49:46;99779.31;;;25.97;45.98
74218;BME280;62579;47.288;18.646;2023-06-26T09:52:16;99792.38;;;25.83;46.03
74218;BME280;62579;47.288;18.646;2023-06-26T09:54:45;99788.13;;;25.94;47.66
74218;BME280;62579;47.288;18.646;2023-06-26T09:57:18;99789.84;;;26.10;47.23
74218;BME280;62579;47.288;18.646;2023-06-26T09:59:44;99780.78;;;26.21;46.90
74218;BME280;62579;47.288;18.646;2023-06-26T10:02:13;99768.62;;;26.29;45.65
74218;BME280;62579;47.288;18.646;2023-06-26T10:04:38;99777.50;;;26.13;48.13
74218;BME280;62579;47.288;18.646;2023-06-26T10:07:10;99774.44;;;26.09;48.50
74218;BME280;62579;47.288;18.646;2023-06-26T10:09:38;99770.22;;;26.43;47.58
74218;BME280;62579;47.288;18.646;2023-06-26T10:12:16;99777.47;;;26.37;47.56
74218;BME280;62579;47.288;18.646;2023-06-26T10:14:43;99765.25;;;26.30;46.39
74218;BME280;62579;47.288;18.646;2023-06-26T10:17:10;99766.22;;;26.23;48.02
74218;BME280;62579;47.288;18.646;2023-06-26T10:19:37;99760.19;;;26.63;48.39
74218;BME280;62579;47.288;18.646;2023-06-26T10:22:03;99774.78;;;26.50;47.43
74218;BME280;62579;47.288;18.646;2023-06-26T10:24:32;99774.66;;;26.60;46.82
74218;BME280;62579;47.288;18.646;2023-06-26T10:27:16;99769.94;;;26.51;45.61
74218;BME280;62579;47.288;18.646;2023-06-26T10:29:44;99766.53;;;26.52;45.70
74218;BME280;62579;47.288;18.646;2023-06-26T10:32:11;99759.47;;;26.63;45.77
74218;BME280;62579;47.288;18.646;2023-06-26T10:34:38;99757.91;;;26.60;46.61
74218;BME280;62579;47.288;18.646;2023-06-26T10:37:04;99764.19;;;26.72;43.14
74218;BME280;62579;47.288;18.646;2023-06-26T10:42:12;99765.09;;;27.00;40.97
74218;BME280;62579;47.288;18.646;2023-06-26T10:44:40;99760.41;;;26.79;41.53
74218;BME280;62579;47.288;18.646;2023-06-26T10:47:07;99761.59;;;26.88;43.28
74218;BME280;62579;47.288;18.646;2023-06-26T10:49:35;99762.25;;;27.11;44.19
74218;BME280;62579;47.288;18.646;2023-06-26T10:52:01;99752.28;;;27.08;43.11
74218;BME280;62579;47.288;18.646;2023-06-26T10:54:31;99758.69;;;26.97;44.79
74218;BME280;62579;47.288;18.646;2023-06-26T10:56:57;99749.91;;;27.03;43.90
74218;BME280;62579;47.288;18.646;2023-06-26T10:59:28;99755.72;;;27.07;43.62
74218;BME280;62579;47.288;18.646;2023-06-26T11:02:04;99760.78;;;26.85;42.20
74218;BME280;62579;47.288;18.646;2023-06-26T11:04:45;99750.53;;;26.90;42.10
74218;BME280;62579;47.288;18.646;2023-06-26T11:07:21;99759.56;;;27.13;43.97
74218;BME280;62579;47.288;18.646;2023-06-26T11:10:00;99749.44;;;27.20;43.15
74218;BME280;62579;47.288;18.646;2023-06-26T11:12:36;99751.41;;;27.17;41.82
74218;BME280;62579;47.288;18.646;2023-06-26T11:15:03;99747.81;;;27.28;43.36
74218;BME280;62579;47.288;18.646;2023-06-26T11:17:29;99750.63;;;27.28;42.96
74218;BME280;62579;47.288;18.646;2023-06-26T11:19:54;99750.34;;;27.36;43.08
74218;BME280;62579;47.288;18.646;2023-06-26T11:22:21;99748.16;;;27.34;41.96
74218;BME280;62579;47.288;18.646;2023-06-26T11:24:48;99748.91;;;27.35;41.80
74218;BME280;62579;47.288;18.646;2023-06-26T11:27:14;99749.56;;;27.47;42.46
74218;BME280;62579;47.288;18.646;2023-06-26T11:29:47;99737.72;;;27.35;41.57
74218;BME280;62579;47.288;18.646;2023-06-26T11:32:12;99744.19;;;27.26;42.19
74218;BME280;62579;47.288;18.646;2023-06-26T11:34:38;99741.34;;;27.37;43.82
74218;BME280;62579;47.288;18.646;2023-06-26T11:37:03;99746.19;;;27.62;45.09
74218;BME280;62579;47.288;18.646;2023-06-26T11:39:29;99735.31;;;27.68;43.40
74218;BME280;62579;47.288;18.646;2023-06-26T11:41:55;99733.59;;;27.75;44.48
74218;BME280;62579;47.288;18.646;2023-06-26T11:44:21;99732.63;;;27.84;44.36
74218;BME280;62579;47.288;18.646;2023-06-26T11:46:46;99739.06;;;28.00;43.97
74218;BME280;62579;47.288;18.646;2023-06-26T11:49:14;99731.63;;;27.91;43.72
74218;BME280;62579;47.288;18.646;2023-06-26T11:51:41;99730.06;;;28.01;42.67
74218;BME280;62579;47.288;18.646;2023-06-26T11:54:07;99724.19;;;28.09;44.83
74218;BME280;62579;47.288;18.646;2023-06-26T11:56:33;99726.34;;;28.11;42.92
74218;BME280;62579;47.288;18.646;2023-06-26T11:59:03;99717.31;;;27.98;43.82
74218;BME280;62579;47.288;18.646;2023-06-26T12:01:33;99721.59;;;27.86;42.94
74218;BME280;62579;47.288;18.646;2023-06-26T12:04:01;99729.75;;;27.82;42.74
74218;BME280;62579;47.288;18.646;2023-06-26T12:06:29;99723.88;;;28.03;41.56
74218;BME280;62579;47.288;18.646;2023-06-26T12:08:58;99728.13;;;28.31;41.38
74218;BME280;62579;47.288;18.646;2023-06-26T12:11:24;99728.03;;;28.16;41.18
74218;BME280;62579;47.288;18.646;2023-06-26T12:13:51;99721.91;;;28.19;41.95
74218;BME280;62579;47.288;18.646;2023-06-26T12:16:16;99720.53;;;28.34;41.65
74218;BME280;62579;47.288;18.646;2023-06-26T12:18:42;99722.06;;;28.50;41.37
74218;BME280;62579;47.288;18.646;2023-06-26T12:21:07;99723.88;;;28.30;42.03
74218;BME280;62579;47.288;18.646;2023-06-26T12:23:33;99715.28;;;28.26;41.83
74218;BME280;62579;47.288;18.646;2023-06-26T12:26:20;99713.47;;;28.46;43.31
74218;BME280;62579;47.288;18.646;2023-06-26T12:28:46;99713.00;;;28.23;42.54
74218;BME280;62579;47.288;18.646;2023-06-26T12:31:13;99715.16;;;28.24;41.59
74218;BME280;62579;47.288;18.646;2023-06-26T12:33:39;99716.59;;;28.39;41.97
74218;BME280;62579;47.288;18.646;2023-06-26T12:36:04;99707.34;;;28.64;40.95
74218;BME280;62579;47.288;18.646;2023-06-26T12:38:33;99718.56;;;28.50;39.55
74218;BME280;62579;47.288;18.646;2023-06-26T12:40:58;99716.91;;;28.45;38.21
74218;BME280;62579;47.288;18.646;2023-06-26T12:43:26;99723.72;;;28.55;40.36
74218;BME280;62579;47.288;18.646;2023-06-26T12:45:55;99717.31;;;28.53;40.30
74218;BME280;62579;47.288;18.646;2023-06-26T12:48:21;99715.88;;;28.38;41.68
74218;BME280;62579;47.288;18.646;2023-06-26T12:50:46;99720.53;;;28.47;40.34
74218;BME280;62579;47.288;18.646;2023-06-26T12:53:13;99716.19;;;28.31;41.59
74218;BME280;62579;47.288;18.646;2023-06-26T12:55:38;99705.72;;;28.31;39.68
74218;BME280;62579;47.288;18.646;2023-06-26T12:58:03;99710.78;;;28.35;42.28
74218;BME280;62579;47.288;18.646;2023-06-26T13:00:29;99706.09;;;28.67;40.76
74218;BME280;62579;47.288;18.646;2023-06-26T13:02:55;99707.09;;;28.59;41.46
74218;BME280;62579;47.288;18.646;2023-06-26T13:05:21;99700.88;;;28.75;39.55
74218;BME280;62579;47.288;18.646;2023-06-26T13:07:46;99700.28;;;28.63;41.54
74218;BME280;62579;47.288;18.646;2023-06-26T13:10:12;99709.41;;;28.49;39.21
74218;BME280;62579;47.288;18.646;2023-06-26T13:12:37;99700.72;;;28.43;39.53
74218;BME280;62579;47.288;18.646;2023-06-26T13:15:02;99699.00;;;28.79;40.45
74218;BME280;62579;47.288;18.646;2023-06-26T13:17:28;99707.53;;;28.97;40.98